sensor_id;sensor_type;location;lat;lon;timestamp;P1;durP1;ratioP1;P2;durP2;ratioP2
84386;SDS011;74580;47.078;15.446;2024-02-23T00:02:17;1.27;;;0.80;;
84386;SDS011;74580;47.078;15.446;2024-02-23T00:04:43;1.65;;;0.60;;
84386;SDS011;74580;47.078;15.446;2024-02-23T00:07:09;0.77;;;0.70;;
84386;SDS011;74580;47.078;15.446;2024-02-23T00:09:35;1.35;;;0.63;;
84386;SDS011;74580;47.078;15.446;2024-02-23T00:12:00;1.13;;;0.70;;
84386;SDS011;74580;47.078;15.446;2024-02-23T00:14:26;1.25;;;0.75;;
84386;SDS011;74580;47.078;15.446;2024-02-23T00:16:51;1.13;;;0.60;;
84386;SDS011;74580;47.078;15.446;2024-02-23T00:19:17;1.27;;;0.60;;
84386;SDS011;74580;47.078;15.446;2024-02-23T00:21:44;0.70;;;0.70;;
84386;SDS011;74580;47.078;15.446;2024-02-23T00:24:14;0.80;;;0.60;;
84386;SDS011;74580;47.078;15.446;2024-02-23T00:26:41;1.20;;;0.80;;
84386;SDS011;74580;47.078;15.446;2024-02-23T00:29:06;0.77;;;0.50;;
84386;SDS011;74580;47.078;15.446;2024-02-23T00:31:32;1.73;;;0.60;;
84386;SDS011;74580;47.078;15.446;2024-02-23T00:33:57;1.07;;;0.80;;
84386;SDS011;74580;47.078;15.446;2024-02-23T00:36:23;2.35;;;0.70;;
84386;SDS011;74580;47.078;15.446;2024-02-23T00:38:48;0.63;;;0.50;;
84386;SDS011;74580;47.078;15.446;2024-02-23T00:41:14;1.52;;;0.50;;
84386;SDS011;74580;47.078;15.446;2024-02-23T00:43:39;0.60;;;0.60;;
84386;SDS011;74580;47.078;15.446;2024-02-23T00:46:06;1.13;;;0.70;;
84386;SDS011;74580;47.078;15.446;2024-02-23T00:48:32;1.30;;;0.70;;
84386;SDS011;74580;47.078;15.446;2024-02-23T00:50:58;1.55;;;0.90;;
84386;SDS011;74580;47.078;15.446;2024-02-23T00:53:23;0.60;;;0.52;;
84386;SDS011;74580;47.078;15.446;2024-02-23T00:55:48;1.17;;;0.85;;
84386;SDS011;74580;47.078;15.446;2024-02-23T00:58:14;0.80;;;0.50;;
84386;SDS011;74580;47.078;15.446;2024-02-23T01:00:40;0.60;;;0.50;;
84386;SDS011;74580;47.078;15.446;2024-02-23T01:03:06;1.10;;;0.52;;
84386;SDS011;74580;47.078;15.446;2024-02-23T01:05:32;1.33;;;0.60;;
84386;SDS011;74580;47.078;15.446;2024-02-23T01:07:58;0.73;;;0.60;;
84386;SDS011;74580;47.078;15.446;2024-02-23T01:10:23;1.15;;;0.80;;
84386;SDS011;74580;47.078;15.446;2024-02-23T01:12:49;0.70;;;0.50;;
84386;SDS011;74580;47.078;15.446;2024-02-23T01:15:14;1.10;;;0.70;;
84386;SDS011;74580;47.078;15.446;2024-02-23T01:17:39;0.93;;;0.70;;
84386;SDS011;74580;47.078;15.446;2024-02-23T01:20:05;1.38;;;0.80;;
84386;SDS011;74580;47.078;15.446;2024-02-23T01:22:31;1.05;;;0.80;;
84386;SDS011;74580;47.078;15.446;2024-02-23T01:24:56;0.95;;;0.50;;
84386;SDS011;74580;47.078;15.446;2024-02-23T01:27:22;0.88;;;0.68;;
84386;SDS011;74580;47.078;15.446;2024-02-23T01:29:47;0.68;;;0.63;;
84386;SDS011;74580;47.078;15.446;2024-02-23T01:32:12;0.70;;;0.68;;
84386;SDS011;74580;47.078;15.446;2024-02-23T01:34:38;1.13;;;0.45;;
84386;SDS011;74580;47.078;15.446;2024-02-23T01:37:03;0.82;;;0.60;;
84386;SDS011;74580;47.078;15.446;2024-02-23T01:39:29;1.15;;;0.63;;
84386;SDS011;74580;47.078;15.446;2024-02-23T01:41:54;1.30;;;0.70;;
84386;SDS011;74580;47.078;15.446;2024-02-23T01:44:20;0.80;;;0.52;;
84386;SDS011;74580;47.078;15.446;2024-02-23T01:46:46;0.60;;;0.50;;
84386;SDS011;74580;47.078;15.446;2024-02-23T01:49:12;0.82;;;0.63;;
84386;SDS011;74580;47.078;15.446;2024-02-23T01:51:38;0.90;;;0.40;;
84386;SDS011;74580;47.078;15.446;2024-02-23T01:54:05;2.47;;;0.73;;
84386;SDS011;74580;47.078;15.446;2024-02-23T01:56:32;1.02;;;0.70;;
84386;SDS011;74580;47.078;15.446;2024-02-23T01:58:59;0.75;;;0.63;;
84386;SDS011;74580;47.078;15.446;2024-02-23T02:01:25;0.90;;;0.60;;
84386;SDS011;74580;47.078;15.446;2024-02-23T02:03:51;0.80;;;0.43;;
84386;SDS011;74580;47.078;15.446;2024-02-23T02:06:16;0.95;;;0.70;;
84386;SDS011;74580;47.078;15.446;2024-02-23T02:08:42;0.75;;;0.60;;
84386;SDS011;74580;47.078;15.446;2024-02-23T02:11:08;0.70;;;0.52;;
84386;SDS011;74580;47.078;15.446;2024-02-23T02:13:33;1.38;;;0.70;;
84386;SDS011;74580;47.078;15.446;2024-02-23T02:15:59;0.90;;;0.57;;
84386;SDS011;74580;47.078;15.446;2024-02-23T02:18:26;0.68;;;0.50;;
84386;SDS011;74580;47.078;15.446;2024-02-23T02:20:52;1.05;;;0.70;;
84386;SDS011;74580;47.078;15.446;2024-02-23T02:23:20;0.90;;;0.50;;
84386;SDS011;74580;47.078;15.446;2024-02-23T02:25:45;0.68;;;0.50;;
84386;SDS011;74580;47.078;15.446;2024-02-23T02:28:16;0.63;;;0.50;;
84386;SDS011;74580;47.078;15.446;2024-02-23T02:30:42;1.38;;;0.55;;
84386;SDS011;74580;47.078;15.446;2024-02-23T02:33:08;0.82;;;0.80;;
84386;SDS011;74580;47.078;15.446;2024-02-23T02:35:33;1.17;;;0.90;;
84386;SDS011;74580;47.078;15.446;2024-02-23T02:37:59;0.90;;;0.68;;
84386;SDS011;74580;47.078;15.446;2024-02-23T02:40:24;0.60;;;0.40;;
84386;SDS011;74580;47.078;15.446;2024-02-23T02:42:49;0.75;;;0.70;;
84386;SDS011;74580;47.078;15.446;2024-02-23T02:45:15;0.90;;;0.63;;
84386;SDS011;74580;47.078;15.446;2024-02-23T02:47:41;0.80;;;0.52;;
84386;SDS011;74580;47.078;15.446;2024-02-23T02:50:06;1.35;;;0.80;;
84386;SDS011;74580;47.078;15.446;2024-02-23T02:52:32;0.90;;;0.50;;
84386;SDS011;74580;47.078;15.446;2024-02-23T02:54:57;1.75;;;0.63;;
84386;SDS011;74580;47.078;15.446;2024-02-23T02:57:23;0.70;;;0.50;;
84386;SDS011;74580;47.078;15.446;2024-02-23T02:59:48;0.70;;;0.60;;
84386;SDS011;74580;47.078;15.446;2024-02-23T03:02:15;0.90;;;0.50;;
84386;SDS011;74580;47.078;15.446;2024-02-23T03:04:49;1.45;;;0.73;;
84386;SDS011;74580;47.078;15.446;2024-02-23T03:07:18;0.98;;;0.55;;
84386;SDS011;74580;47.078;15.446;2024-02-23T03:09:43;0.75;;;0.68;;
84386;SDS011;74580;47.078;15.446;2024-02-23T03:12:10;1.83;;;0.70;;
84386;SDS011;74580;47.078;15.446;2024-02-23T03:14:35;0.80;;;0.50;;
84386;SDS011;74580;47.078;15.446;2024-02-23T03:17:04;1.08;;;0.80;;
84386;SDS011;74580;47.078;15.446;2024-02-23T03:19:30;0.80;;;0.60;;
84386;SDS011;74580;47.078;15.446;2024-02-23T03:21:55;1.30;;;0.80;;
84386;SDS011;74580;47.078;15.446;2024-02-23T03:24:20;1.10;;;0.85;;
84386;SDS011;74580;47.078;15.446;2024-02-23T03:26:46;1.42;;;0.60;;
84386;SDS011;74580;47.078;15.446;2024-02-23T03:29:11;1.40;;;0.90;;
84386;SDS011;74580;47.078;15.446;2024-02-23T03:31:37;1.15;;;0.70;;
84386;SDS011;74580;47.078;15.446;2024-02-23T03:34:02;1.27;;;0.75;;
84386;SDS011;74580;47.078;15.446;2024-02-23T03:36:28;0.70;;;0.40;;
84386;SDS011;74580;47.078;15.446;2024-02-23T03:38:53;0.50;;;0.40;;
84386;SDS011;74580;47.078;15.446;2024-02-23T03:41:18;0.80;;;0.70;;
84386;SDS011;74580;47.078;15.446;2024-02-23T03:43:44;1.00;;;0.80;;
84386;SDS011;74580;47.078;15.446;2024-02-23T03:46:09;0.80;;;0.50;;
84386;SDS011;74580;47.078;15.446;2024-02-23T03:48:36;0.80;;;0.45;;
84386;SDS011;74580;47.078;15.446;2024-02-23T03:51:03;0.60;;;0.50;;
84386;SDS011;74580;47.078;15.446;2024-02-23T03:53:33;0.90;;;0.70;;
84386;SDS011;74580;47.078;15.446;2024-02-23T03:55:58;0.60;;;0.45;;
84386;SDS011;74580;47.078;15.446;2024-02-23T03:58:23;0.90;;;0.50;;
84386;SDS011;74580;47.078;15.446;2024-02-23T04:00:49;0.80;;;0.50;;
84386;SDS011;74580;47.078;15.446;2024-02-23T04:03:14;1.35;;;0.90;;
84386;SDS011;74580;47.078;15.446;2024-02-23T04:05:40;0.85;;;0.60;;
84386;SDS011;74580;47.078;15.446;2024-02-23T04:08:05;1.17;;;0.90;;
84386;SDS011;74580;47.078;15.446;2024-02-23T04:10:31;1.00;;;0.70;;
84386;SDS011;74580;47.078;15.446;2024-02-23T04:12:57;0.82;;;0.50;;
84386;SDS011;74580;47.078;15.446;2024-02-23T04:15:23;1.20;;;0.70;;
84386;SDS011;74580;47.078;15.446;2024-02-23T04:17:48;1.42;;;0.95;;
84386;SDS011;74580;47.078;15.446;2024-02-23T04:20:14;1.02;;;0.60;;
84386;SDS011;74580;47.078;15.446;2024-02-23T04:22:39;1.70;;;0.80;;
84386;SDS011;74580;47.078;15.446;2024-02-23T04:25:04;1.00;;;0.60;;
84386;SDS011;74580;47.078;15.446;2024-02-23T04:27:30;0.70;;;0.50;;
84386;SDS011;74580;47.078;15.446;2024-02-23T04:29:55;0.70;;;0.52;;
84386;SDS011;74580;47.078;15.446;2024-02-23T04:32:21;0.60;;;0.40;;
84386;SDS011;74580;47.078;15.446;2024-02-23T04:34:47;0.98;;;0.60;;
84386;SDS011;74580;47.078;15.446;2024-02-23T04:37:12;1.13;;;0.63;;
84386;SDS011;74580;47.078;15.446;2024-02-23T04:39:37;1.40;;;0.60;;
84386;SDS011;74580;47.078;15.446;2024-02-23T04:42:11;1.00;;;0.65;;
84386;SDS011;74580;47.078;15.446;2024-02-23T04:44:37;0.95;;;0.52;;
84386;SDS011;74580;47.078;15.446;2024-02-23T04:47:02;0.90;;;0.67;;
84386;SDS011;74580;47.078;15.446;2024-02-23T04:49:28;0.90;;;0.60;;
84386;SDS011;74580;47.078;15.446;2024-02-23T04:51:53;1.33;;;0.80;;
84386;SDS011;74580;47.078;15.446;2024-02-23T04:54:19;0.70;;;0.50;;
84386;SDS011;74580;47.078;15.446;2024-02-23T04:56:45;0.63;;;0.50;;
84386;SDS011;74580;47.078;15.446;2024-02-23T04:59:12;0.65;;;0.43;;
84386;SDS011;74580;47.078;15.446;2024-02-23T05:01:37;0.70;;;0.60;;
84386;SDS011;74580;47.078;15.446;2024-02-23T05:04:03;1.27;;;0.90;;
84386;SDS011;74580;47.078;15.446;2024-02-23T05:06:29;0.90;;;0.50;;
84386;SDS011;74580;47.078;15.446;2024-02-23T05:08:54;0.70;;;0.60;;
84386;SDS011;74580;47.078;15.446;2024-02-23T05:11:20;1.08;;;0.75;;
84386;SDS011;74580;47.078;15.446;2024-02-23T05:13:46;1.08;;;0.50;;
84386;SDS011;74580;47.078;15.446;2024-02-23T05:16:13;0.82;;;0.70;;
84386;SDS011;74580;47.078;15.446;2024-02-23T05:18:39;0.95;;;0.57;;
84386;SDS011;74580;47.078;15.446;2024-02-23T05:21:06;0.80;;;0.60;;
84386;SDS011;74580;47.078;15.446;2024-02-23T05:23:31;1.90;;;0.90;;
84386;SDS011;74580;47.078;15.446;2024-02-23T05:25:57;0.90;;;0.63;;
84386;SDS011;74580;47.078;15.446;2024-02-23T05:28:22;0.63;;;0.40;;
84386;SDS011;74580;47.078;15.446;2024-02-23T05:30:48;1.42;;;0.80;;
84386;SDS011;74580;47.078;15.446;2024-02-23T05:33:13;0.80;;;0.70;;
84386;SDS011;74580;47.078;15.446;2024-02-23T05:35:38;0.80;;;0.75;;
84386;SDS011;74580;47.078;15.446;2024-02-23T05:38:04;0.82;;;0.47;;
84386;SDS011;74580;47.078;15.446;2024-02-23T05:40:31;1.05;;;0.60;;
84386;SDS011;74580;47.078;15.446;2024-02-23T05:42:57;1.30;;;0.70;;
84386;SDS011;74580;47.078;15.446;2024-02-23T05:45:23;0.77;;;0.70;;
84386;SDS011;74580;47.078;15.446;2024-02-23T05:47:48;1.05;;;0.50;;
84386;SDS011;74580;47.078;15.446;2024-02-23T05:50:14;0.80;;;0.40;;
84386;SDS011;74580;47.078;15.446;2024-02-23T05:52:39;1.33;;;0.70;;
84386;SDS011;74580;47.078;15.446;2024-02-23T05:55:05;1.65;;;0.60;;
84386;SDS011;74580;47.078;15.446;2024-02-23T05:57:31;2.75;;;0.70;;
84386;SDS011;74580;47.078;15.446;2024-02-23T05:59:56;3.03;;;0.70;;
84386;SDS011;74580;47.078;15.446;2024-02-23T06:02:22;2.55;;;0.77;;
84386;SDS011;74580;47.078;15.446;2024-02-23T06:04:48;1.40;;;0.70;;
84386;SDS011;74580;47.078;15.446;2024-02-23T06:07:13;1.02;;;0.70;;
84386;SDS011;74580;47.078;15.446;2024-02-23T06:09:42;0.90;;;0.50;;
84386;SDS011;74580;47.078;15.446;2024-02-23T06:12:08;1.52;;;0.82;;
84386;SDS011;74580;47.078;15.446;2024-02-23T06:14:33;2.88;;;1.00;;
84386;SDS011;74580;47.078;15.446;2024-02-23T06:16:59;1.92;;;0.90;;
84386;SDS011;74580;47.078;15.446;2024-02-23T06:19:25;1.30;;;0.80;;
84386;SDS011;74580;47.078;15.446;2024-02-23T06:21:50;2.92;;;0.82;;
84386;SDS011;74580;47.078;15.446;2024-02-23T06:24:16;3.22;;;0.95;;
84386;SDS011;74580;47.078;15.446;2024-02-23T06:26:42;4.38;;;0.82;;
84386;SDS011;74580;47.078;15.446;2024-02-23T06:29:07;2.65;;;1.10;;
84386;SDS011;74580;47.078;15.446;2024-02-23T06:31:38;3.95;;;1.15;;
84386;SDS011;74580;47.078;15.446;2024-02-23T06:34:04;4.00;;;1.10;;
84386;SDS011;74580;47.078;15.446;2024-02-23T06:36:30;1.00;;;0.80;;
84386;SDS011;74580;47.078;15.446;2024-02-23T06:38:55;3.65;;;0.70;;
84386;SDS011;74580;47.078;15.446;2024-02-23T06:41:21;1.48;;;0.80;;
84386;SDS011;74580;47.078;15.446;2024-02-23T06:43:46;3.72;;;0.80;;
84386;SDS011;74580;47.078;15.446;2024-02-23T06:46:12;1.40;;;0.70;;
84386;SDS011;74580;47.078;15.446;2024-02-23T06:48:37;3.80;;;0.90;;
84386;SDS011;74580;47.078;15.446;2024-02-23T06:51:03;1.67;;;0.95;;
84386;SDS011;74580;47.078;15.446;2024-02-23T06:53:30;1.90;;;0.80;;
84386;SDS011;74580;47.078;15.446;2024-02-23T06:55:55;1.98;;;0.80;;
84386;SDS011;74580;47.078;15.446;2024-02-23T06:58:21;1.73;;;1.10;;
84386;SDS011;74580;47.078;15.446;2024-02-23T07:00:46;2.47;;;1.00;;
84386;SDS011;74580;47.078;15.446;2024-02-23T07:03:11;2.17;;;1.20;;
84386;SDS011;74580;47.078;15.446;2024-02-23T07:05:37;1.42;;;1.00;;
84386;SDS011;74580;47.078;15.446;2024-02-23T07:08:02;2.97;;;1.20;;
84386;SDS011;74580;47.078;15.446;2024-02-23T07:10:28;4.05;;;1.30;;
84386;SDS011;74580;47.078;15.446;2024-02-23T07:12:54;2.50;;;0.90;;
84386;SDS011;74580;47.078;15.446;2024-02-23T07:15:20;2.13;;;0.98;;
84386;SDS011;74580;47.078;15.446;2024-02-23T07:17:46;1.85;;;1.00;;
84386;SDS011;74580;47.078;15.446;2024-02-23T07:20:12;1.83;;;1.00;;
84386;SDS011;74580;47.078;15.446;2024-02-23T07:22:37;2.45;;;1.20;;
84386;SDS011;74580;47.078;15.446;2024-02-23T07:25:03;1.90;;;1.10;;
84386;SDS011;74580;47.078;15.446;2024-02-23T07:27:29;4.30;;;1.10;;
84386;SDS011;74580;47.078;15.446;2024-02-23T07:29:56;2.67;;;1.05;;
84386;SDS011;74580;47.078;15.446;2024-02-23T07:32:21;5.72;;;1.50;;
84386;SDS011;74580;47.078;15.446;2024-02-23T07:34:47;1.75;;;1.10;;
84386;SDS011;74580;47.078;15.446;2024-02-23T07:37:13;2.22;;;1.10;;
84386;SDS011;74580;47.078;15.446;2024-02-23T07:39:38;4.07;;;1.13;;
84386;SDS011;74580;47.078;15.446;2024-02-23T07:42:04;1.83;;;1.15;;
84386;SDS011;74580;47.078;15.446;2024-02-23T07:44:31;2.13;;;1.00;;
84386;SDS011;74580;47.078;15.446;2024-02-23T07:46:56;3.55;;;1.10;;
84386;SDS011;74580;47.078;15.446;2024-02-23T07:49:23;2.25;;;1.23;;
84386;SDS011;74580;47.078;15.446;2024-02-23T07:51:49;2.17;;;1.23;;
84386;SDS011;74580;47.078;15.446;2024-02-23T07:54:14;1.77;;;1.13;;
84386;SDS011;74580;47.078;15.446;2024-02-23T07:56:39;2.88;;;1.23;;
84386;SDS011;74580;47.078;15.446;2024-02-23T07:59:05;2.00;;;1.17;;
84386;SDS011;74580;47.078;15.446;2024-02-23T08:01:30;2.60;;;0.95;;
84386;SDS011;74580;47.078;15.446;2024-02-23T08:03:56;3.45;;;0.82;;
84386;SDS011;74580;47.078;15.446;2024-02-23T08:06:22;2.28;;;0.90;;
84386;SDS011;74580;47.078;15.446;2024-02-23T08:08:47;2.97;;;1.10;;
84386;SDS011;74580;47.078;15.446;2024-02-23T08:11:13;1.50;;;1.10;;
84386;SDS011;74580;47.078;15.446;2024-02-23T08:13:39;3.97;;;1.10;;
84386;SDS011;74580;47.078;15.446;2024-02-23T08:16:04;1.85;;;1.00;;
84386;SDS011;74580;47.078;15.446;2024-02-23T08:18:30;2.38;;;0.90;;
84386;SDS011;74580;47.078;15.446;2024-02-23T08:20:56;2.72;;;1.50;;
84386;SDS011;74580;47.078;15.446;2024-02-23T08:23:22;2.38;;;1.48;;
84386;SDS011;74580;47.078;15.446;2024-02-23T08:25:48;4.00;;;1.13;;
84386;SDS011;74580;47.078;15.446;2024-02-23T08:28:13;3.03;;;1.25;;
84386;SDS011;74580;47.078;15.446;2024-02-23T08:30:39;2.05;;;0.90;;
84386;SDS011;74580;47.078;15.446;2024-02-23T08:33:04;2.40;;;0.95;;
84386;SDS011;74580;47.078;15.446;2024-02-23T08:35:30;2.15;;;1.10;;
84386;SDS011;74580;47.078;15.446;2024-02-23T08:37:56;2.25;;;1.23;;
84386;SDS011;74580;47.078;15.446;2024-02-23T08:40:21;2.88;;;1.10;;
84386;SDS011;74580;47.078;15.446;2024-02-23T08:42:47;2.20;;;1.20;;
84386;SDS011;74580;47.078;15.446;2024-02-23T08:45:12;3.28;;;1.20;;
84386;SDS011;74580;47.078;15.446;2024-02-23T08:47:38;1.30;;;0.90;;
84386;SDS011;74580;47.078;15.446;2024-02-23T08:50:04;2.78;;;1.20;;
84386;SDS011;74580;47.078;15.446;2024-02-23T08:52:31;2.15;;;0.90;;
84386;SDS011;74580;47.078;15.446;2024-02-23T08:54:56;2.08;;;1.30;;
84386;SDS011;74580;47.078;15.446;2024-02-23T08:57:22;1.92;;;0.75;;
84386;SDS011;74580;47.078;15.446;2024-02-23T08:59:48;3.75;;;1.20;;
84386;SDS011;74580;47.078;15.446;2024-02-23T09:02:14;3.65;;;0.75;;
84386;SDS011;74580;47.078;15.446;2024-02-23T09:04:40;3.17;;;1.10;;
84386;SDS011;74580;47.078;15.446;2024-02-23T09:07:05;2.25;;;1.10;;
84386;SDS011;74580;47.078;15.446;2024-02-23T09:09:31;2.70;;;1.10;;
84386;SDS011;74580;47.078;15.446;2024-02-23T09:11:56;1.60;;;0.80;;
84386;SDS011;74580;47.078;15.446;2024-02-23T09:14:22;3.20;;;0.95;;
84386;SDS011;74580;47.078;15.446;2024-02-23T09:16:47;3.22;;;1.38;;
84386;SDS011;74580;47.078;15.446;2024-02-23T09:19:15;1.60;;;1.20;;
84386;SDS011;74580;47.078;15.446;2024-02-23T09:21:44;1.95;;;1.00;;
84386;SDS011;74580;47.078;15.446;2024-02-23T09:24:10;2.72;;;1.20;;
84386;SDS011;74580;47.078;15.446;2024-02-23T09:26:35;2.10;;;0.82;;
84386;SDS011;74580;47.078;15.446;2024-02-23T09:29:01;1.27;;;0.95;;
84386;SDS011;74580;47.078;15.446;2024-02-23T09:31:26;2.47;;;0.90;;
84386;SDS011;74580;47.078;15.446;2024-02-23T09:33:54;2.50;;;1.10;;
84386;SDS011;74580;47.078;15.446;2024-02-23T09:36:20;1.92;;;1.50;;
84386;SDS011;74580;47.078;15.446;2024-02-23T09:38:45;2.28;;;0.93;;
84386;SDS011;74580;47.078;15.446;2024-02-23T09:41:12;1.52;;;0.82;;
84386;SDS011;74580;47.078;15.446;2024-02-23T09:43:44;3.28;;;0.70;;
84386;SDS011;74580;47.078;15.446;2024-02-23T09:46:11;3.10;;;1.00;;
84386;SDS011;74580;47.078;15.446;2024-02-23T09:48:37;2.13;;;1.05;;
84386;SDS011;74580;47.078;15.446;2024-02-23T09:51:03;2.30;;;0.93;;
84386;SDS011;74580;47.078;15.446;2024-02-23T09:53:30;1.65;;;0.95;;
84386;SDS011;74580;47.078;15.446;2024-02-23T09:55:56;1.98;;;0.90;;
84386;SDS011;74580;47.078;15.446;2024-02-23T09:58:25;1.85;;;1.10;;
84386;SDS011;74580;47.078;15.446;2024-02-23T10:00:54;2.03;;;0.90;;
84386;SDS011;74580;47.078;15.446;2024-02-23T10:03:23;1.85;;;0.88;;
84386;SDS011;74580;47.078;15.446;2024-02-23T10:05:56;3.53;;;1.00;;
84386;SDS011;74580;47.078;15.446;2024-02-23T10:08:22;2.15;;;0.85;;
84386;SDS011;74580;47.078;15.446;2024-02-23T10:10:48;2.60;;;1.20;;
84386;SDS011;74580;47.078;15.446;2024-02-23T10:13:20;2.40;;;0.98;;
84386;SDS011;74580;47.078;15.446;2024-02-23T10:15:52;1.77;;;0.80;;
84386;SDS011;74580;47.078;15.446;2024-02-23T10:18:18;2.00;;;0.70;;
84386;SDS011;74580;47.078;15.446;2024-02-23T10:20:44;1.45;;;0.75;;
84386;SDS011;74580;47.078;15.446;2024-02-23T10:23:10;1.23;;;0.82;;
84386;SDS011;74580;47.078;15.446;2024-02-23T10:25:36;1.98;;;0.73;;
84386;SDS011;74580;47.078;15.446;2024-02-23T10:28:05;2.78;;;1.30;;
84386;SDS011;74580;47.078;15.446;2024-02-23T10:30:31;2.33;;;0.90;;
84386;SDS011;74580;47.078;15.446;2024-02-23T10:32:57;2.28;;;0.88;;
84386;SDS011;74580;47.078;15.446;2024-02-23T10:35:23;2.15;;;1.27;;
84386;SDS011;74580;47.078;15.446;2024-02-23T10:37:49;2.13;;;0.80;;
84386;SDS011;74580;47.078;15.446;2024-02-23T10:40:16;1.65;;;1.05;;
84386;SDS011;74580;47.078;15.446;2024-02-23T10:42:43;2.38;;;1.17;;
84386;SDS011;74580;47.078;15.446;2024-02-23T10:45:12;3.25;;;0.95;;
84386;SDS011;74580;47.078;15.446;2024-02-23T10:47:40;2.28;;;0.90;;
84386;SDS011;74580;47.078;15.446;2024-02-23T10:50:06;1.75;;;0.90;;
84386;SDS011;74580;47.078;15.446;2024-02-23T10:52:32;2.08;;;1.00;;
84386;SDS011;74580;47.078;15.446;2024-02-23T10:54:58;1.08;;;0.63;;
84386;SDS011;74580;47.078;15.446;2024-02-23T10:57:25;2.00;;;0.80;;
84386;SDS011;74580;47.078;15.446;2024-02-23T10:59:51;1.45;;;1.02;;
84386;SDS011;74580;47.078;15.446;2024-02-23T11:02:18;2.40;;;1.00;;
84386;SDS011;74580;47.078;15.446;2024-02-23T11:04:46;3.20;;;1.13;;
84386;SDS011;74580;47.078;15.446;2024-02-23T11:07:15;1.60;;;0.70;;
84386;SDS011;74580;47.078;15.446;2024-02-23T11:09:53;2.38;;;1.05;;
84386;SDS011;74580;47.078;15.446;2024-02-23T11:12:23;1.42;;;0.63;;
84386;SDS011;74580;47.078;15.446;2024-02-23T11:14:49;1.83;;;0.90;;
84386;SDS011;74580;47.078;15.446;2024-02-23T11:17:18;1.42;;;1.00;;
84386;SDS011;74580;47.078;15.446;2024-02-23T11:19:50;1.38;;;0.90;;
84386;SDS011;74580;47.078;15.446;2024-02-23T11:22:23;2.53;;;0.77;;
84386;SDS011;74580;47.078;15.446;2024-02-23T11:24:52;2.05;;;1.15;;
84386;SDS011;74580;47.078;15.446;2024-02-23T11:27:18;3.28;;;1.10;;
84386;SDS011;74580;47.078;15.446;2024-02-23T11:29:45;2.47;;;1.27;;
84386;SDS011;74580;47.078;15.446;2024-02-23T11:32:12;1.50;;;0.73;;
84386;SDS011;74580;47.078;15.446;2024-02-23T11:34:41;3.72;;;1.17;;
84386;SDS011;74580;47.078;15.446;2024-02-23T11:37:10;2.30;;;0.80;;
84386;SDS011;74580;47.078;15.446;2024-02-23T11:39:39;1.80;;;1.00;;
84386;SDS011;74580;47.078;15.446;2024-02-23T11:42:05;2.08;;;0.80;;
84386;SDS011;74580;47.078;15.446;2024-02-23T11:44:31;2.13;;;1.00;;
84386;SDS011;74580;47.078;15.446;2024-02-23T11:46:58;2.08;;;0.90;;
84386;SDS011;74580;47.078;15.446;2024-02-23T11:49:29;0.93;;;0.70;;
84386;SDS011;74580;47.078;15.446;2024-02-23T11:51:55;2.40;;;0.93;;
84386;SDS011;74580;47.078;15.446;2024-02-23T11:54:21;2.38;;;1.08;;
84386;SDS011;74580;47.078;15.446;2024-02-23T11:56:48;2.17;;;0.88;;
84386;SDS011;74580;47.078;15.446;2024-02-23T11:59:14;1.75;;;0.80;;
84386;SDS011;74580;47.078;15.446;2024-02-23T12:01:41;1.85;;;0.93;;
84386;SDS011;74580;47.078;15.446;2024-02-23T12:04:06;2.47;;;0.90;;
84386;SDS011;74580;47.078;15.446;2024-02-23T12:06:32;1.65;;;0.80;;
84386;SDS011;74580;47.078;15.446;2024-02-23T12:08:58;2.08;;;0.93;;
84386;SDS011;74580;47.078;15.446;2024-02-23T12:11:24;3.25;;;1.25;;
84386;SDS011;74580;47.078;15.446;2024-02-23T12:13:50;2.47;;;1.30;;
84386;SDS011;74580;47.078;15.446;2024-02-23T12:16:16;3.85;;;1.58;;
84386;SDS011;74580;47.078;15.446;2024-02-23T12:18:41;2.30;;;1.00;;
84386;SDS011;74580;47.078;15.446;2024-02-23T12:21:07;1.52;;;1.00;;
84386;SDS011;74580;47.078;15.446;2024-02-23T12:23:49;1.55;;;0.80;;
84386;SDS011;74580;47.078;15.446;2024-02-23T12:26:18;2.25;;;1.10;;
84386;SDS011;74580;47.078;15.446;2024-02-23T12:28:44;3.78;;;1.38;;
84386;SDS011;74580;47.078;15.446;2024-02-23T12:31:10;1.60;;;0.80;;
84386;SDS011;74580;47.078;15.446;2024-02-23T12:33:37;2.75;;;0.95;;
84386;SDS011;74580;47.078;15.446;2024-02-23T12:36:06;1.80;;;1.00;;
84386;SDS011;74580;47.078;15.446;2024-02-23T12:38:33;2.50;;;0.98;;
84386;SDS011;74580;47.078;15.446;2024-02-23T12:40:59;1.75;;;1.10;;
84386;SDS011;74580;47.078;15.446;2024-02-23T12:43:25;2.22;;;0.90;;
84386;SDS011;74580;47.078;15.446;2024-02-23T12:45:54;1.63;;;0.95;;
84386;SDS011;74580;47.078;15.446;2024-02-23T12:48:20;1.52;;;0.80;;
84386;SDS011;74580;47.078;15.446;2024-02-23T12:50:46;2.38;;;1.15;;
84386;SDS011;74580;47.078;15.446;2024-02-23T12:55:58;1.95;;;1.00;;
84386;SDS011;74580;47.078;15.446;2024-02-23T12:58:25;2.03;;;1.10;;
84386;SDS011;74580;47.078;15.446;2024-02-23T13:00:50;1.42;;;1.00;;
84386;SDS011;74580;47.078;15.446;2024-02-23T13:03:16;2.38;;;0.90;;
84386;SDS011;74580;47.078;15.446;2024-02-23T13:05:41;1.88;;;1.08;;
84386;SDS011;74580;47.078;15.446;2024-02-23T13:08:07;2.22;;;1.00;;
84386;SDS011;74580;47.078;15.446;2024-02-23T13:10:32;1.90;;;1.20;;
84386;SDS011;74580;47.078;15.446;2024-02-23T13:13:00;1.83;;;1.05;;
84386;SDS011;74580;47.078;15.446;2024-02-23T13:15:25;3.65;;;1.10;;
84386;SDS011;74580;47.078;15.446;2024-02-23T13:17:50;2.60;;;1.15;;
84386;SDS011;74580;47.078;15.446;2024-02-23T13:20:16;2.78;;;1.20;;
84386;SDS011;74580;47.078;15.446;2024-02-23T13:22:41;1.75;;;1.00;;
84386;SDS011;74580;47.078;15.446;2024-02-23T13:25:06;2.05;;;1.05;;
84386;SDS011;74580;47.078;15.446;2024-02-23T13:27:32;1.88;;;1.10;;
84386;SDS011;74580;47.078;15.446;2024-02-23T13:29:57;3.20;;;0.90;;
84386;SDS011;74580;47.078;15.446;2024-02-23T13:32:22;1.45;;;0.80;;
84386;SDS011;74580;47.078;15.446;2024-02-23T13:34:48;2.75;;;0.90;;
84386;SDS011;74580;47.078;15.446;2024-02-23T13:37:17;1.77;;;1.10;;
84386;SDS011;74580;47.078;15.446;2024-02-23T13:39:43;1.83;;;1.25;;
84386;SDS011;74580;47.078;15.446;2024-02-23T13:42:08;1.75;;;1.00;;
84386;SDS011;74580;47.078;15.446;2024-02-23T13:44:35;3.05;;;0.90;;
84386;SDS011;74580;47.078;15.446;2024-02-23T13:47:00;1.73;;;0.93;;
84386;SDS011;74580;47.078;15.446;2024-02-23T13:49:26;1.73;;;1.10;;
84386;SDS011;74580;47.078;15.446;2024-02-23T13:51:51;2.20;;;1.00;;
84386;SDS011;74580;47.078;15.446;2024-02-23T13:54:16;1.60;;;1.23;;
84386;SDS011;74580;47.078;15.446;2024-02-23T13:56:42;3.30;;;1.40;;
84386;SDS011;74580;47.078;15.446;2024-02-23T13:59:07;1.80;;;1.23;;
84386;SDS011;74580;47.078;15.446;2024-02-23T14:01:33;1.58;;;1.08;;
84386;SDS011;74580;47.078;15.446;2024-02-23T14:03:58;1.38;;;0.85;;
84386;SDS011;74580;47.078;15.446;2024-02-23T14:06:24;1.70;;;1.20;;
84386;SDS011;74580;47.078;15.446;2024-02-23T14:08:49;4.72;;;1.00;;
84386;SDS011;74580;47.078;15.446;2024-02-23T14:11:14;3.70;;;1.25;;
84386;SDS011;74580;47.078;15.446;2024-02-23T14:13:40;4.68;;;1.08;;
84386;SDS011;74580;47.078;15.446;2024-02-23T14:16:05;3.85;;;1.33;;
84386;SDS011;74580;47.078;15.446;2024-02-23T14:18:31;4.80;;;1.70;;
84386;SDS011;74580;47.078;15.446;2024-02-23T14:21:01;3.85;;;1.20;;
84386;SDS011;74580;47.078;15.446;2024-02-23T14:23:28;4.53;;;1.52;;
84386;SDS011;74580;47.078;15.446;2024-02-23T14:25:53;1.92;;;1.00;;
84386;SDS011;74580;47.078;15.446;2024-02-23T14:28:19;3.05;;;0.82;;
84386;SDS011;74580;47.078;15.446;2024-02-23T14:30:44;2.30;;;1.27;;